AirNav   Air Wisconsin pilot careers
 
 1514 users online  

5ND9 Deck Airport
Hillsboro, North Dakota, USA

GOING TO HILLSBORO?


FAA INFORMATION EFFECTIVE 07 DECEMBER 2017

Location

FAA Identifier: 5ND9
Lat/Long: 47-29-04.9270N / 097-04-29.3130W
47-29.082117N / 097-04.488550W
47.4847019 / -97.0748092
(estimated)
Elevation: 916 ft. / 279 m (estimated)
Variation: 06E (1985)
From city: 4 miles N of HILLSBORO, ND
Time zone: UTC -6 (UTC -5 during Daylight Saving Time)
Zip code: 58223

Airport Operations

Airport use: Private use. Permission required prior to landing
Activation date: 04/1977
Control tower: no
ARTCC: MINNEAPOLIS CENTER
FSS: GRAND FORKS FLIGHT SERVICE STATION
Attendance: MON-SAT DAYLIGHT HOURS
Wind indicator: yes
Segmented circle: no

Nearby radio navigation aids

VOR radial/distance  VOR name  Freq  Var
GFKr162/28.6GRAND FORKS VOR/DME114.3009E

 
NDB name  Hdg/Dist  Freq  Var  ID
CROOKSTON218/28.340003ECKN -.-. -.- -.

Airport Services

Runway Information

Runway 16/34

Dimensions: 4400 x 60 ft. / 1341 x 18 m
Surface: turf
RUNWAY 16  RUNWAY 34
Traffic pattern: leftleft

Airport Ownership and Management from official FAA records

Ownership: Privately-owned
Owner: SKY TRACTOR SUPPLY CO LLC
16285 5TH STREET NE
HILLSBORO, ND 58045
Phone 701-636-5880
Manager: MICHAEL DECK
16285 5TH STREET NE
HILLSBORO, ND 58045
Phone 701-636-5880

Airport Operational Statistics

Aircraft based on the field: 6
Single engine airplanes: 6
    

Instrument Procedures

There are no published instrument procedures at 5ND9.

Some nearby airports with instrument procedures:

3H4 - Hillsboro Municipal Airport (8 nm S)
4V4 - Northwood Municipal Airport-Vince Field (25 nm NW)
KGFK - Grand Forks International Airport (28 nm N)
KCKN - Crookston Municipal Airport-Kirkwood Field (28 nm NE)
D00 - Norman County Ada/Twin Valley Airport (31 nm SE)
 
Loc | Ops | Rwys | IFR | FBO | Links
Com | Nav | Svcs | Stats | Notes


 
Area around 5ND9 (Deck Airport)
 
Road maps at: MapQuest Bing Google
 
Aerial photo
No photo
 
Sectional chart

 
Airport distance calculator
Flying to Deck Airport? Find the distance to fly.

From to 5ND9

Sunrise and sunset
Times for 11-Dec-2017
 Local
(UTC-6)
 Zulu
(UTC)
Morning civil twilight07:3113:31
Sunrise08:0714:07
Sunset16:3622:36
Evening civil twilight17:1223:12

Current date and time
Zulu (UTC)  11-Dec-2017 17:35:42
Local (UTC-6)  11-Dec-2017 11:35:42
 
METAR
KGFK 
28nm N 
111653Z 35028G40KT 1SM R35L/P6000FT BLSN BKN013 OVC023 M07/M10 A3014 RMK AO2 PK WND 35042/1634 SFC VIS 1 1/2 SLP224 VIS 3/4V3 T10721100
KCKN 
29nm NE 
111715Z AUTO 36031G36KT 4SM BR SCT011 OVC023 M08/M09 A3012 RMK AO2
KRDR 
32nm NW 
111656Z 01021G33KT 5SM BLSN SCT008 BKN015 OVC023 M07/M11 A3015 RMK AO2A PK WND 36036/39 CIG 015 RWY17 SLP230 T10701109 $
KFAR 
35nm S 
111653Z 35026G38KT 9SM UP OVC015 M03/M06 A3008 RMK AO2 PK WND 34043/1601 UPB45 SLP202 P0000 T10331061
KS32 
42nm W 
111715Z AUTO 35028KT 10SM BKN016 OVC021 M06/M09 A3015 RMK AO2
KJKJ 
42nm SE 
111715Z AUTO 36027G32KT 10SM SCT015 OVC023 M04/M07 A3009 RMK AO2
K3N8 
48nm E 
111715Z AUTO 36022G31KT 2SM BR OVC015 M05/M08 A3002 RMK AO2 T10551079
TAF
KGFK 
28nm N 
111520Z 1115/1212 34024G36KT 2SM BLSN BKN007 OVC015 TEMPO 1115/1117 1/2SM -SN BLSN OVC007 FM111700 35021G32KT 5SM BLSN BKN015 FM112000 34021G32KT P6SM BKN025 FM112100 34019KT P6SM SCT030 FM120500 31006KT P6SM SCT070 FM120900 25007KT P6SM BKN025
KRDR 
32nm NW 
111215Z 1112/1216 35027G37KT 8000 -RA OVC010 620109 510003 QNH2976INS BECMG 1112/1113 35025G35KT 9999 -RASN OVC008 620088 510003 QNH2980INS BECMG 1113/1114 34020G30KT 9999 NSW OVC012 620126 510003 QNH2982INS TEMPO 1114/1122 33025G35KT BECMG 1122/1123 33012KT 9999 BKN025 620253 QNH3015INS BECMG 1208/1209 20006KT 9999 SCT018 BKN025 620253 QNH3020INS BECMG 1214/1215 18006KT 9999 SCT007 BKN020 OVC025 620203 QNH3009INS TX01/1112Z TNM09/1202Z
KFAR 
35nm S 
111430Z 1114/1212 34026G40KT P6SM OVC010 FM111700 34023G34KT P6SM OVC015 FM112200 34019KT P6SM SCT030 FM120400 34008KT P6SM SCT250 FM121100 22004KT P6SM BKN025
NOTAMs
Click for the latest NOTAMs
NOTAMs are issued by the DoD/FAA and will open in a separate window not controlled by AirNav.

 

 
 

Would you like to see your business listed on this page?

 If your business provides an interesting product or service to pilots, flight crews, aircraft, or users of the Deck Airport, you should consider listing it here.  To start the listing process, click on the button below
 
Add a business
 

Other Pages about Deck Airport

Update a link
 
Copyright © AirNav, LLC. All rights reserved. Privacy Policy  Contact